Time;durP1;ratioP1;P1;durP2;ratioP2;P2;SDS_P1;SDS_P2;PMS_P1;PMS_P2;Temp;Humidity;BMP_temperature;BMP_pressure;BME280_temperature;BME280_humidity;BME280_pressure;Samples;Min_cycle;Max_cycle;Signal;HPM_P1;HPM_P2
2021/09/03 00:00:30;;;;;;;5.97;4.20;;;;;;;15.52;73.29;98055.94;5059460;28;20044;-76
2021/09/03 00:02:56;;;;;;;6.70;4.30;;;;;;;15.57;73.26;98072.63;5057215;28;20042;-77
2021/09/03 00:05:21;;;;;;;5.97;4.07;;;;;;;15.49;74.23;98066.97;5060180;28;20453;-76
2021/09/03 00:07:48;;;;;;;9.68;4.40;;;;;;;15.44;74.15;98071.78;5059619;28;20035;-76
2021/09/03 00:10:15;;;;;;;9.63;4.40;;;;;;;15.43;74.93;98074.59;5058739;28;20034;-76
2021/09/03 00:12:41;;;;;;;8.93;4.38;;;;;;;15.36;76.18;98052.63;5070375;28;20115;-76
2021/09/03 00:15:09;;;;;;;5.93;4.25;;;;;;;15.35;75.91;98058.97;5054369;28;20083;-76
2021/09/03 00:17:35;;;;;;;8.50;4.60;;;;;;;15.30;76.63;98049.50;5052279;28;20425;-76
2021/09/03 00:20:01;;;;;;;8.70;5.00;;;;;;;15.31;77.80;98054.78;5037477;28;20029;-76
2021/09/03 00:22:27;;;;;;;9.65;4.47;;;;;;;15.21;77.83;98048.34;5037636;28;20067;-76
2021/09/03 00:24:52;;;;;;;7.28;4.70;;;;;;;15.10;78.67;98037.50;5055105;28;20024;-76
2021/09/03 00:27:18;;;;;;;10.73;5.00;;;;;;;15.07;78.79;98037.72;5056530;28;20040;-76
2021/09/03 00:29:43;;;;;;;7.90;4.75;;;;;;;15.14;79.04;98056.00;5071144;28;20033;-76
2021/09/03 00:32:09;;;;;;;10.13;5.38;;;;;;;14.93;80.08;98038.69;5075452;28;20029;-76
2021/09/03 00:34:34;;;;;;;7.53;4.95;;;;;;;15.07;79.57;98056.56;5058079;28;20017;-76
2021/09/03 00:37:00;;;;;;;16.40;4.50;;;;;;;15.13;78.44;98058.81;5074715;28;20032;-76
2021/09/03 00:39:26;;;;;;;9.75;4.88;;;;;;;14.97;78.60;98042.03;5075505;28;20407;-76
2021/09/03 00:41:51;;;;;;;8.93;5.18;;;;;;;14.98;79.31;98049.16;5053637;28;20039;-76
2021/09/03 00:44:17;;;;;;;9.98;5.45;;;;;;;14.93;80.06;98045.91;5053536;28;20558;-76
2021/09/03 00:46:42;;;;;;;11.45;4.50;;;;;;;14.81;80.29;98053.03;5052322;28;20024;-76
2021/09/03 00:49:08;;;;;;;5.82;4.60;;;;;;;14.68;81.28;98049.47;5074894;28;20110;-77
2021/09/03 00:51:34;;;;;;;9.55;4.93;;;;;;;14.57;82.04;98046.69;5074551;28;20019;-76
2021/09/03 00:53:59;;;;;;;8.45;4.85;;;;;;;14.49;83.36;98051.72;5058259;28;20115;-76
2021/09/03 00:56:25;;;;;;;8.40;4.93;;;;;;;14.37;83.95;98028.34;5058131;28;20060;-77
2021/09/03 00:58:51;;;;;;;15.57;5.13;;;;;;;14.41;84.04;98043.34;5074421;28;20094;-76
2021/09/03 01:01:20;;;;;;;8.68;5.28;;;;;;;14.30;84.68;98024.34;5056215;28;20021;-76
2021/09/03 01:03:47;;;;;;;8.40;5.07;;;;;;;14.17;86.34;98024.34;5057306;28;20104;-77
2021/09/03 01:06:12;;;;;;;9.93;5.40;;;;;;;14.31;86.41;98047.59;5056521;28;20408;-76
2021/09/03 01:08:38;;;;;;;10.07;5.50;;;;;;;14.17;86.68;98029.72;5060244;28;20020;-76
2021/09/03 01:11:03;;;;;;;10.93;5.32;;;;;;;14.11;87.24;98025.63;5083643;28;20029;-77
2021/09/03 01:13:29;;;;;;;14.73;5.75;;;;;;;14.10;88.71;98039.16;5059501;28;20103;-76
2021/09/03 01:15:55;;;;;;;9.70;6.20;;;;;;;14.04;90.03;98034.19;5058724;28;20020;-76
2021/09/03 01:18:20;;;;;;;10.45;5.80;;;;;;;14.00;89.96;98016.53;5041347;28;20062;-76
2021/09/03 01:20:46;;;;;;;9.27;5.50;;;;;;;14.00;90.32;98032.69;5058052;28;20509;-76
2021/09/03 01:23:13;;;;;;;10.00;5.40;;;;;;;13.97;89.94;98031.06;5055868;28;20140;-76
2021/09/03 01:25:39;;;;;;;9.85;5.65;;;;;;;13.93;90.28;98020.63;5057798;28;20036;-76
2021/09/03 01:28:05;;;;;;;6.57;5.15;;;;;;;13.84;90.39;98019.41;5057892;28;20029;-76
2021/09/03 01:30:30;;;;;;;8.77;5.05;;;;;;;13.87;91.25;98034.50;5039647;28;20039;-76
2021/09/03 01:32:56;;;;;;;11.07;5.30;;;;;;;13.79;92.12;98036.81;5052611;28;20082;-76
2021/09/03 01:35:22;;;;;;;11.98;5.45;;;;;;;13.71;92.61;98031.09;5056522;28;20024;-76
2021/09/03 01:37:47;;;;;;;6.53;4.97;;;;;;;13.58;93.44;98029.22;5073464;28;20479;-76
2021/09/03 01:40:13;;;;;;;7.88;5.20;;;;;;;13.45;93.66;98016.69;5056018;28;20033;-76
2021/09/03 01:42:38;;;;;;;9.93;5.18;;;;;;;13.29;95.17;98019.50;5074104;28;20028;-76
2021/09/03 01:45:04;;;;;;;12.25;6.05;;;;;;;13.36;95.88;98018.16;5055556;28;20399;-76
2021/09/03 01:47:30;;;;;;;10.00;5.60;;;;;;;13.39;96.36;98030.53;5055330;28;20059;-75
2021/09/03 01:49:56;;;;;;;11.02;5.38;;;;;;;13.33;96.09;98026.44;5038816;28;20448;-76
2021/09/03 01:52:22;;;;;;;7.47;5.57;;;;;;;13.38;96.24;98028.81;5054763;28;20040;-76
2021/09/03 01:54:48;;;;;;;11.73;5.55;;;;;;;13.18;97.53;97994.31;5073582;28;20032;-76
2021/09/03 01:57:14;;;;;;;10.30;5.80;;;;;;;13.35;97.78;98027.19;5054313;28;20087;-76
2021/09/03 01:59:40;;;;;;;9.02;5.30;;;;;;;13.22;98.03;98011.97;5052388;28;20061;-76
2021/09/03 02:02:06;;;;;;;9.30;6.00;;;;;;;13.27;98.24;98021.44;5052439;28;20042;-76
2021/09/03 02:04:31;;;;;;;10.65;5.25;;;;;;;13.26;98.68;98014.34;5072431;28;20035;-76
2021/09/03 02:06:57;;;;;;;8.57;5.75;;;;;;;13.11;99.24;97999.22;5051920;28;20090;-76
2021/09/03 02:09:22;;;;;;;9.48;5.18;;;;;;;13.05;99.21;97999.59;5050949;28;20052;-76
2021/09/03 02:11:48;;;;;;;7.63;5.25;;;;;;;13.05;99.76;97999.59;5038414;28;20024;-76
2021/09/03 02:14:14;;;;;;;10.15;6.28;;;;;;;13.17;98.83;98014.06;5053109;28;20025;-75
2021/09/03 02:16:39;;;;;;;8.82;5.30;;;;;;;13.17;98.16;98009.56;5022920;28;20461;-76
2021/09/03 02:19:05;;;;;;;8.77;5.30;;;;;;;13.05;98.71;98000.47;5055315;28;20070;-76
2021/09/03 02:21:31;;;;;;;11.48;6.07;;;;;;;12.93;100.00;98000.38;5073368;28;20063;-76
2021/09/03 02:23:57;;;;;;;9.57;5.70;;;;;;;12.94;100.00;97999.44;5074342;28;20073;-76
2021/09/03 02:26:22;;;;;;;8.43;5.63;;;;;;;12.80;100.00;97980.63;5055674;28;20024;-76
2021/09/03 02:28:48;;;;;;;8.57;4.93;;;;;;;12.76;100.00;97992.56;5055092;28;20114;-76
2021/09/03 02:31:14;;;;;;;12.90;5.40;;;;;;;12.76;100.00;97987.19;5072366;28;20085;-76
2021/09/03 02:33:39;;;;;;;8.27;5.45;;;;;;;12.79;100.00;97989.69;5072623;28;20474;-76
2021/09/03 02:36:05;;;;;;;9.20;5.72;;;;;;;12.73;100.00;97993.63;5072541;28;20535;-76
2021/09/03 02:38:30;;;;;;;11.73;6.28;;;;;;;12.62;100.00;97989.84;5054127;28;20052;-76
2021/09/03 02:40:56;;;;;;;12.13;5.97;;;;;;;12.69;100.00;97996.56;5051183;28;20040;-76
2021/09/03 02:43:21;;;;;;;9.52;5.22;;;;;;;12.62;100.00;97987.19;5052487;28;20036;-76
2021/09/03 02:45:47;;;;;;;9.82;5.38;;;;;;;12.59;100.00;97985.56;5037625;28;20028;-80
2021/09/03 02:48:13;;;;;;;8.68;6.10;;;;;;;12.49;100.00;97989.78;5056972;28;20485;-76
2021/09/03 02:50:38;;;;;;;12.00;5.75;;;;;;;12.43;100.00;97985.66;5055348;28;20094;-76
2021/09/03 02:53:04;;;;;;;9.90;5.82;;;;;;;12.40;100.00;97982.28;5055234;28;20037;-76
2021/09/03 02:55:29;;;;;;;15.00;6.10;;;;;;;12.28;100.00;97986.59;5037736;28;20117;-76
2021/09/03 02:57:56;;;;;;;12.65;6.45;;;;;;;12.26;100.00;97993.03;5072616;28;20057;-76
2021/09/03 03:00:22;;;;;;;11.73;6.55;;;;;;;12.19;100.00;97968.41;5054727;28;20031;-76
2021/09/03 03:02:48;;;;;;;10.30;6.53;;;;;;;12.23;100.00;97988.72;5051327;28;20400;-76
2021/09/03 03:05:13;;;;;;;17.95;7.40;;;;;;;12.18;100.00;97976.56;5060357;28;20028;-76
2021/09/03 03:07:39;;;;;;;10.55;6.47;;;;;;;12.11;100.00;97965.34;5034515;28;20055;-76
2021/09/03 03:10:06;;;;;;;10.48;6.82;;;;;;;12.16;100.00;97976.63;5034242;28;20079;-76
2021/09/03 03:12:31;;;;;;;20.60;7.30;;;;;;;12.14;100.00;97959.78;5038847;28;20427;-76
2021/09/03 03:14:57;;;;;;;13.48;6.55;;;;;;;12.26;100.00;97988.53;5037395;28;20043;-77
2021/09/03 03:17:23;;;;;;;14.73;6.32;;;;;;;12.26;100.00;97998.38;5072201;28;20024;-76
2021/09/03 03:19:48;;;;;;;10.75;6.50;;;;;;;12.24;100.00;97981.53;5037748;28;20032;-77
2021/09/03 03:22:14;;;;;;;12.10;6.82;;;;;;;12.27;100.00;97990.28;5071665;28;20057;-77
2021/09/03 03:24:40;;;;;;;12.50;6.55;;;;;;;12.17;100.00;97977.50;5054618;28;20033;-76
2021/09/03 03:27:05;;;;;;;13.70;6.15;;;;;;;12.08;100.00;97967.34;5034684;28;20041;-77
2021/09/03 03:29:31;;;;;;;17.30;6.72;;;;;;;12.07;100.00;97974.50;5043156;28;20056;-76
2021/09/03 03:31:57;;;;;;;14.88;7.03;;;;;;;12.03;100.00;97970.28;5064767;28;20025;-76
2021/09/03 03:34:22;;;;;;;18.73;7.70;;;;;;;12.01;100.00;97972.22;5037619;28;20078;-76
2021/09/03 03:36:48;;;;;;;18.73;7.75;;;;;;;12.09;100.00;97995.88;5054814;28;20025;-77
2021/09/03 03:39:13;;;;;;;13.43;7.55;;;;;;;11.98;100.00;97969.72;5072304;28;20028;-76
2021/09/03 03:41:39;;;;;;;15.32;6.97;;;;;;;12.08;100.00;97997.72;5071956;28;20056;-77
2021/09/03 03:44:05;;;;;;;10.95;6.53;;;;;;;12.07;100.00;97997.78;5071941;28;20021;-76
2021/09/03 03:46:30;;;;;;;13.40;6.80;;;;;;;12.04;100.00;97993.47;5053945;28;20056;-76
2021/09/03 03:48:56;;;;;;;15.45;6.68;;;;;;;12.06;100.00;98013.00;5071704;28;20107;-76
2021/09/03 03:51:23;;;;;;;24.10;10.45;;;;;;;12.02;100.00;98008.81;5053554;28;20033;-76
2021/09/03 03:53:48;;;;;;;16.20;6.95;;;;;;;11.99;100.00;98011.66;5053798;28;20025;-76
2021/09/03 03:56:14;;;;;;;17.20;6.60;;;;;;;11.87;100.00;97985.59;5021753;28;20031;-77
2021/09/03 03:58:40;;;;;;;17.27;7.78;;;;;;;11.99;100.00;98000.06;5036200;28;20029;-76
2021/09/03 04:01:05;;;;;;;16.52;8.40;;;;;;;12.03;100.00;98018.56;5033773;28;20120;-77
2021/09/03 04:03:31;;;;;;;17.27;8.15;;;;;;;12.02;100.00;98018.66;5068868;28;20082;-76
2021/09/03 04:05:56;;;;;;;15.98;8.88;;;;;;;12.00;100.00;98013.38;5053918;28;20021;-76
2021/09/03 04:08:22;;;;;;;17.35;8.07;;;;;;;11.99;100.00;98016.16;5050373;28;20235;-77
2021/09/03 04:10:47;;;;;;;16.52;8.45;;;;;;;12.03;100.00;98029.28;5034021;28;20029;-77
2021/09/03 04:13:13;;;;;;;14.50;7.57;;;;;;;12.05;100.00;98026.53;5045662;28;20618;-77
2021/09/03 04:15:39;;;;;;;11.23;6.68;;;;;;;11.96;100.00;98014.53;5036426;28;20032;-77
2021/09/03 04:18:04;;;;;;;12.68;6.53;;;;;;;12.03;100.00;98017.72;5025438;28;20109;-76
2021/09/03 04:20:30;;;;;;;16.10;5.85;;;;;;;11.83;100.00;98011.72;5033733;28;20028;-76
2021/09/03 04:22:56;;;;;;;13.05;7.22;;;;;;;12.10;100.00;98038.69;5034076;28;20049;-76
2021/09/03 04:25:22;;;;;;;19.20;7.03;;;;;;;12.12;100.00;98042.13;5049250;28;20115;-84
2021/09/03 04:27:47;;;;;;;14.05;7.05;;;;;;;12.07;100.00;98029.97;5054586;28;20112;-79
2021/09/03 04:30:13;;;;;;;14.93;7.20;;;;;;;11.91;100.00;98008.56;5053254;28;20040;-79
2021/09/03 04:32:39;;;;;;;13.15;6.72;;;;;;;12.11;100.00;98035.06;5029743;28;20028;-80
2021/09/03 04:35:06;;;;;;;15.43;6.55;;;;;;;12.23;100.00;98031.63;5039467;28;20476;-80
2021/09/03 04:37:31;;;;;;;14.35;7.03;;;;;;;12.22;100.00;98032.56;5055955;28;20441;-80
2021/09/03 04:39:57;;;;;;;16.20;6.88;;;;;;;12.30;100.00;98043.72;5043797;28;20112;-80
2021/09/03 04:42:22;;;;;;;17.70;7.38;;;;;;;12.19;100.00;98013.13;5052092;28;20032;-81
2021/09/03 04:44:48;;;;;;;18.73;8.68;;;;;;;12.30;100.00;98016.91;5039901;28;20112;-81
2021/09/03 04:47:14;;;;;;;15.57;8.23;;;;;;;12.46;100.00;98025.72;5055783;28;20025;-81
2021/09/03 04:49:39;;;;;;;14.32;7.80;;;;;;;12.53;100.00;98031.56;5055632;28;20024;-81
2021/09/03 04:52:05;;;;;;;16.15;7.38;;;;;;;12.52;100.00;98019.97;5035665;28;20106;-80
2021/09/03 04:54:30;;;;;;;21.45;7.85;;;;;;;12.71;100.00;98026.84;5057326;28;20032;-80
2021/09/03 04:56:56;;;;;;;11.88;7.82;;;;;;;12.95;100.00;98030.72;5035780;28;20094;-80
2021/09/03 04:59:21;;;;;;;13.68;7.35;;;;;;;13.02;100.00;98013.22;5034429;28;20491;-79
2021/09/03 05:01:47;;;;;;;16.05;6.90;;;;;;;13.08;99.52;98007.47;5038679;28;20028;-79
2021/09/03 05:04:12;;;;;;;16.00;7.55;;;;;;;13.19;98.58;98015.72;5039038;28;20036;-80
2021/09/03 05:06:38;;;;;;;15.98;6.50;;;;;;;13.39;97.49;98009.91;5036903;28;20459;-81
2021/09/03 05:09:03;;;;;;;17.42;7.10;;;;;;;13.28;96.53;97974.81;5039178;28;20463;-80
2021/09/03 05:11:29;;;;;;;15.20;7.43;;;;;;;13.39;98.09;98004.53;5035709;28;20037;-80
2021/09/03 05:13:54;;;;;;;15.07;6.85;;;;;;;13.64;97.25;98024.41;5054949;28;20467;-80
2021/09/03 05:16:20;;;;;;;14.50;7.55;;;;;;;13.66;97.44;98017.13;5055756;28;20497;-80
2021/09/03 05:18:45;;;;;;;13.30;7.72;;;;;;;13.84;96.53;98015.88;5036480;28;20040;-80
2021/09/03 05:21:11;;;;;;;18.38;7.75;;;;;;;14.06;94.04;98010.72;5032356;28;20472;-82
2021/09/03 05:23:37;;;;;;;18.15;7.78;;;;;;;14.11;92.56;98008.63;5030485;28;20496;-80
2021/09/03 05:26:03;;;;;;;17.63;7.10;;;;;;;14.11;91.73;97992.47;5053210;28;20020;-80
2021/09/03 05:28:29;;;;;;;10.07;6.40;;;;;;;14.32;90.17;98001.75;5057703;28;20036;-81
2021/09/03 05:30:54;;;;;;;14.88;6.53;;;;;;;14.93;87.67;98008.19;5050894;28;20041;-81
2021/09/03 05:33:20;;;;;;;13.93;6.95;;;;;;;17.09;76.85;98028.47;5030894;28;20033;-80
2021/09/03 05:35:46;;;;;;;15.88;6.68;;;;;;;19.31;65.26;98036.47;5067757;28;20733;-80
2021/09/03 05:38:12;;;;;;;34.47;6.82;;;;;;;20.85;57.22;98032.06;5040156;28;20093;-80
2021/09/03 05:40:37;;;;;;;13.73;6.53;;;;;;;22.05;52.36;98037.41;5035550;28;20120;-81
2021/09/03 05:43:03;;;;;;;11.52;5.63;;;;;;;22.49;50.04;98040.19;5036300;28;20036;-81
2021/09/03 05:45:30;;;;;;;13.82;6.40;;;;;;;22.94;48.56;98029.16;5053433;28;20450;-80
2021/09/03 05:47:55;;;;;;;11.93;5.80;;;;;;;23.01;47.85;98030.25;5042778;28;20126;-80
2021/09/03 05:50:21;;;;;;;11.25;5.80;;;;;;;24.08;45.31;98036.88;5040790;28;20089;-81
2021/09/03 05:52:47;;;;;;;12.88;5.75;;;;;;;25.10;42.91;98032.69;5054076;28;20424;-81
2021/09/03 05:55:13;;;;;;;7.32;4.78;;;;;;;24.82;42.53;98039.59;5053896;28;20580;-80
2021/09/03 05:57:39;;;;;;;9.68;5.30;;;;;;;25.73;40.22;98024.47;5036400;28;20506;-78
2021/09/03 06:00:06;;;;;;;17.42;6.97;;;;;;;25.56;40.87;98035.69;5053253;28;20419;-78
2021/09/03 06:02:31;;;;;;;11.60;4.93;;;;;;;26.42;38.63;98037.28;5071459;28;20039;-78
2021/09/03 06:04:57;;;;;;;10.52;5.03;;;;;;;26.49;38.28;98003.66;5051848;28;20017;-78
2021/09/03 06:07:23;;;;;;;9.50;5.15;;;;;;;26.73;38.36;98012.50;5053792;28;20411;-78
2021/09/03 06:09:48;;;;;;;8.38;4.88;;;;;;;26.92;38.47;98027.63;5053765;28;20028;-78
2021/09/03 06:12:14;;;;;;;11.60;5.50;;;;;;;26.99;37.65;98017.63;5045965;28;20035;-78
2021/09/03 06:14:39;;;;;;;10.85;4.78;;;;;;;28.09;36.32;98026.84;5037523;28;20450;-79
2021/09/03 06:17:05;;;;;;;8.10;4.55;;;;;;;28.39;34.73;98004.53;5054058;28;20037;-79
2021/09/03 06:19:31;;;;;;;11.73;4.90;;;;;;;28.47;34.39;98009.94;5037452;28;20468;-79
2021/09/03 06:22:00;;;;;;;8.88;4.88;;;;;;;28.97;33.69;98003.44;5053654;28;20515;-79
2021/09/03 06:24:32;;;;;;;9.25;4.90;;;;;;;29.67;32.89;97985.03;5055037;28;20054;-79
2021/09/03 06:27:00;;;;;;;7.43;4.28;;;;;;;29.66;32.67;98011.75;5037617;28;20492;-78
2021/09/03 06:29:39;;;;;;;9.48;4.57;;;;;;;30.38;31.51;97994.69;5037124;28;20032;-77
2021/09/03 06:32:06;;;;;;;8.57;4.38;;;;;;;30.87;30.56;98005.41;5039172;28;20500;-77
2021/09/03 06:34:31;;;;;;;7.07;4.25;;;;;;;30.76;30.53;97997.75;5053964;28;20417;-77
2021/09/03 06:36:57;;;;;;;11.35;4.82;;;;;;;30.33;31.49;97998.03;5051080;28;20025;-76
2021/09/03 06:39:22;;;;;;;9.70;4.55;;;;;;;29.67;31.82;97998.84;5054139;28;20024;-79
2021/09/03 06:41:48;;;;;;;7.50;4.63;;;;;;;30.04;31.25;97996.50;5050365;28;20029;-79
2021/09/03 06:44:14;;;;;;;6.85;4.43;;;;;;;30.48;31.25;98000.69;5052933;28;20460;-77
2021/09/03 06:46:39;;;;;;;7.90;4.80;;;;;;;31.30;29.86;98001.16;5050282;28;20017;-79
2021/09/03 06:49:05;;;;;;;10.75;4.68;;;;;;;31.73;28.77;98001.50;5051645;28;20016;-76
2021/09/03 06:51:30;;;;;;;6.43;4.47;;;;;;;32.74;27.74;97992.31;5033157;28;20113;-79
2021/09/03 06:53:56;;;;;;;11.40;4.63;;;;;;;32.85;26.93;97987.97;5030333;28;20405;-80
2021/09/03 06:56:21;;;;;;;8.45;4.78;;;;;;;33.14;27.10;97989.22;5053386;28;20025;-79
2021/09/03 06:58:47;;;;;;;8.68;4.78;;;;;;;32.78;27.35;97981.63;5053488;28;20029;-78
2021/09/03 07:01:12;;;;;;;7.80;4.22;;;;;;;32.48;27.15;97970.31;5044842;28;20058;-77
2021/09/03 07:03:38;;;;;;;11.57;4.97;;;;;;;32.08;28.13;97983.53;5036761;28;20024;-78
2021/09/03 07:06:03;;;;;;;16.98;5.55;;;;;;;31.21;29.38;97996.06;5053197;28;20051;-77
2021/09/03 07:08:29;;;;;;;11.73;4.60;;;;;;;30.13;30.47;97994.38;5036452;28;20162;-78
2021/09/03 07:10:54;;;;;;;10.40;4.00;;;;;;;30.60;30.13;97999.84;5053213;28;20025;-79
2021/09/03 07:13:20;;;;;;;12.13;4.68;;;;;;;31.38;29.16;98009.22;5036268;28;20025;-79
2021/09/03 07:15:45;;;;;;;8.23;4.22;;;;;;;31.77;28.59;98002.78;5033163;28;20029;-79
2021/09/03 07:18:11;;;;;;;6.85;4.70;;;;;;;32.93;27.38;97989.59;5034583;28;20035;-79
2021/09/03 07:20:36;;;;;;;12.73;5.45;;;;;;;32.93;27.17;97992.38;5050017;28;20127;-78
2021/09/03 07:23:02;;;;;;;6.60;4.60;;;;;;;33.77;25.69;97998.22;5049964;28;20522;-77
2021/09/03 07:25:28;;;;;;;5.82;4.25;;;;;;;32.74;26.74;97985.91;5053750;28;20513;-82
2021/09/03 07:27:53;;;;;;;12.70;4.70;;;;;;;33.07;26.43;97982.88;5033353;28;20032;-83
2021/09/03 07:30:19;;;;;;;7.13;4.35;;;;;;;33.44;25.63;97979.09;5016949;28;20569;-82
2021/09/03 07:32:47;;;;;;;6.53;4.30;;;;;;;31.19;28.65;97965.88;5022918;28;20143;-82
2021/09/03 07:35:13;;;;;;;6.13;4.00;;;;;;;32.06;27.38;97985.66;5045164;28;20043;-76
2021/09/03 07:37:40;;;;;;;5.25;3.92;;;;;;;32.28;27.29;97988.09;5071513;28;20115;-77
2021/09/03 07:40:06;;;;;;;12.07;4.40;;;;;;;32.32;26.70;97981.91;5036908;28;20466;-77
2021/09/03 07:42:33;;;;;;;11.15;4.05;;;;;;;32.68;26.62;97971.03;5049827;28;20032;-80
2021/09/03 07:45:00;;;;;;;6.60;4.68;;;;;;;32.85;26.59;97979.66;5033653;28;20033;-79
2021/09/03 07:47:25;;;;;;;11.20;4.53;;;;;;;33.00;26.08;97971.84;5052134;28;20033;-79
2021/09/03 07:49:51;;;;;;;5.13;3.85;;;;;;;34.36;24.51;97953.03;5033044;28;20557;-79
2021/09/03 07:52:17;;;;;;;5.07;3.67;;;;;;;34.77;23.18;97936.38;5032972;28;20415;-79
2021/09/03 07:54:44;;;;;;;7.97;3.90;;;;;;;35.26;22.86;97934.25;5036314;28;20102;-79
2021/09/03 07:57:10;;;;;;;5.40;3.83;;;;;;;35.29;22.99;97956.03;5071138;28;20432;-79
2021/09/03 07:59:35;;;;;;;9.13;4.30;;;;;;;34.82;23.09;97933.72;5049896;28;20032;-79
2021/09/03 08:02:01;;;;;;;7.40;3.40;;;;;;;35.71;20.77;97915.84;5041369;28;20024;-79
2021/09/03 08:04:26;;;;;;;6.68;3.53;;;;;;;36.24;21.25;97934.22;5040024;28;20020;-79
2021/09/03 08:06:52;;;;;;;8.48;4.03;;;;;;;36.16;21.28;97915.09;5040530;28;20503;-78
2021/09/03 08:09:17;;;;;;;5.72;3.80;;;;;;;36.42;20.90;97936.81;5037713;28;20382;-78
2021/09/03 08:11:43;;;;;;;12.27;4.72;;;;;;;35.56;21.14;97912.69;5036268;28;20517;-78
2021/09/03 08:14:08;;;;;;;6.43;3.50;;;;;;;33.86;22.75;97919.09;5036380;28;20036;-79
2021/09/03 08:16:34;;;;;;;7.70;3.85;;;;;;;34.97;21.63;97927.69;5056291;28;20055;-79
2021/09/03 08:19:00;;;;;;;7.63;3.80;;;;;;;35.67;21.76;97927.72;5053203;28;20146;-79
2021/09/03 08:21:25;;;;;;;7.28;4.13;;;;;;;36.51;21.09;97928.88;5037121;28;20025;-79
2021/09/03 08:23:51;;;;;;;4.47;3.35;;;;;;;35.69;21.24;97918.00;5056167;28;20039;-79
2021/09/03 08:26:16;;;;;;;7.70;4.10;;;;;;;36.94;20.07;97921.59;5053690;28;20121;-83
2021/09/03 08:28:42;;;;;;;6.72;3.70;;;;;;;36.82;19.98;97884.56;5039818;28;20040;-83
2021/09/03 08:31:08;;;;;;;6.22;3.97;;;;;;;37.24;19.93;97914.81;5036012;28;20036;-83
2021/09/03 08:33:33;;;;;;;5.90;3.92;;;;;;;37.98;19.26;97917.03;5039060;28;20029;-82
2021/09/03 08:35:59;;;;;;;6.80;3.40;;;;;;;38.06;18.81;97900.91;5039457;28;20484;-83
2021/09/03 08:38:25;;;;;;;5.68;3.53;;;;;;;37.84;18.75;97890.53;5056027;28;20592;-83
2021/09/03 08:40:51;;;;;;;7.97;3.97;;;;;;;37.45;19.37;97883.34;5056125;28;20107;-83
2021/09/03 08:43:19;;;;;;;5.40;3.90;;;;;;;33.95;22.93;97902.94;5056168;28;20043;-83
2021/09/03 08:45:46;;;;;;;5.78;4.03;;;;;;;34.01;22.80;97899.22;5039783;28;20031;-81
2021/09/03 08:48:11;;;;;;;4.72;3.60;;;;;;;33.25;23.07;97880.31;5064321;28;20111;-81
2021/09/03 08:50:37;;;;;;;5.82;4.10;;;;;;;33.24;23.70;97884.16;5055850;28;20174;-83
2021/09/03 08:53:03;;;;;;;4.25;3.45;;;;;;;34.09;23.34;97865.56;5056285;28;20503;-83
2021/09/03 08:55:28;;;;;;;4.47;3.38;;;;;;;35.49;21.43;97867.44;5038100;28;20115;-83
2021/09/03 08:57:54;;;;;;;4.40;3.40;;;;;;;36.73;20.19;97863.75;5039427;28;20033;-83
2021/09/03 09:00:21;;;;;;;5.63;3.22;;;;;;;37.86;19.11;97874.38;5039103;28;20036;-83
2021/09/03 09:02:58;;;;;;;4.60;3.33;;;;;;;36.91;19.98;97852.34;5055851;28;20028;-83
2021/09/03 09:05:43;;;;;;;4.32;3.28;;;;;;;37.84;19.57;97871.00;5073539;28;20028;-84
2021/09/03 09:08:09;;;;;;;5.75;3.42;;;;;;;37.84;19.38;97857.03;5052466;28;20170;-83
2021/09/03 09:10:36;;;;;;;5.38;3.40;;;;;;;38.14;18.80;97855.72;5037837;28;20144;-84
2021/09/03 09:13:18;;;;;;;5.43;3.72;;;;;;;38.27;18.74;97858.09;5049110;28;20029;-82
2021/09/03 09:16:06;;;;;;;6.30;3.58;;;;;;;38.25;19.06;97865.88;5027671;28;20021;-82
2021/09/03 09:18:52;;;;;;;4.03;3.17;;;;;;;38.54;18.33;97853.34;5034182;28;20029;-82
2021/09/03 09:21:20;;;;;;;5.00;3.50;;;;;;;38.48;18.31;97858.06;5035270;28;20025;-82
2021/09/03 09:24:04;;;;;;;5.03;3.35;;;;;;;37.79;19.12;97856.97;5038352;28;20045;-82
2021/09/03 09:27:05;;;;;;;4.97;3.55;;;;;;;38.48;18.26;97851.63;5072701;28;20564;-82
2021/09/03 09:29:36;;;;;;;4.73;3.30;;;;;;;38.82;18.05;97852.22;4994483;28;20480;-82
2021/09/03 09:32:10;;;;;;;3.97;3.47;;;;;;;37.66;18.77;97851.78;5028503;28;20036;-82
2021/09/03 09:34:38;;;;;;;7.80;3.70;;;;;;;36.73;19.81;97846.19;5054289;28;20044;-83
2021/09/03 09:37:13;;;;;;;5.65;3.40;;;;;;;36.73;19.78;97843.41;5038651;28;20036;-83
2021/09/03 09:39:59;;;;;;;7.70;3.45;;;;;;;36.49;20.32;97845.47;5038936;28;20050;-83
2021/09/03 09:42:29;;;;;;;4.28;3.53;;;;;;;36.84;19.86;97843.31;5035202;28;20139;-83
2021/09/03 09:45:09;;;;;;;5.82;3.67;;;;;;;36.71;20.50;97849.22;5073513;28;20024;-83
2021/09/03 09:47:36;;;;;;;4.53;3.53;;;;;;;37.27;19.46;97830.56;5036555;28;20024;-83
2021/09/03 09:50:27;;;;;;;6.47;3.47;;;;;;;38.33;18.66;97838.28;5038268;28;20133;-83
2021/09/03 09:52:53;;;;;;;4.63;3.63;;;;;;;39.48;17.63;97837.53;5027619;28;20025;-84
2021/09/03 09:55:18;;;;;;;3.20;2.90;;;;;;;40.28;17.21;97824.09;5034030;28;20465;-82
2021/09/03 09:57:46;;;;;;;6.30;4.03;;;;;;;39.41;17.67;97824.91;5038059;28;20491;-82
2021/09/03 10:00:12;;;;;;;7.55;3.60;;;;;;;41.07;16.00;97816.03;5051721;28;20021;-83
2021/09/03 10:02:38;;;;;;;6.38;3.67;;;;;;;39.76;17.31;97813.03;5033014;28;20555;-84
2021/09/03 10:05:04;;;;;;;4.70;3.20;;;;;;;37.50;18.69;97802.44;5028293;28;20025;-82
2021/09/03 10:07:30;;;;;;;6.35;3.13;;;;;;;38.98;18.08;97807.25;5034908;28;20025;-83
2021/09/03 10:09:55;;;;;;;3.22;2.92;;;;;;;39.91;17.00;97804.66;5037681;28;20476;-83
2021/09/03 10:12:22;;;;;;;5.43;3.20;;;;;;;39.51;17.49;97802.53;5037362;28;20106;-83
2021/09/03 10:14:47;;;;;;;4.00;3.42;;;;;;;37.24;20.08;97798.44;5037162;28;20024;-84
2021/09/03 10:17:13;;;;;;;11.73;4.10;;;;;;;35.10;21.56;97784.78;5037501;28;20039;-83
2021/09/03 10:19:43;;;;;;;22.67;3.47;;;;;;;33.64;23.06;97791.03;5035803;28;20036;-84
2021/09/03 10:22:12;;;;;;;3.97;3.40;;;;;;;32.11;24.46;97825.25;5062730;28;20083;-84
2021/09/03 10:24:42;;;;;;;6.60;3.25;;;;;;;30.90;26.38;97809.59;5034946;28;20480;-83
2021/09/03 10:27:08;;;;;;;5.65;3.65;;;;;;;30.71;26.68;97828.97;5037960;28;20040;-83
2021/09/03 10:29:40;;;;;;;7.07;3.63;;;;;;;30.24;26.64;97833.66;5036996;28;20043;-82
2021/09/03 10:32:06;;;;;;;5.88;3.80;;;;;;;30.45;27.04;97833.50;5037363;28;20465;-82
2021/09/03 10:34:42;;;;;;;4.63;3.58;;;;;;;30.09;27.12;97820.06;5071741;28;20064;-82
2021/09/03 10:37:16;;;;;;;4.50;3.45;;;;;;;29.74;28.19;97826.78;5053852;28;20037;-82
2021/09/03 10:39:59;;;;;;;9.65;3.55;;;;;;;29.92;27.31;97831.72;5053340;28;20047;-82
2021/09/03 10:42:33;;;;;;;5.57;3.72;;;;;;;29.05;27.98;97828.81;5071815;28;20032;-82
2021/09/03 10:45:02;;;;;;;5.38;3.35;;;;;;;29.24;27.61;97819.84;5050342;28;20032;-82
2021/09/03 10:47:51;;;;;;;5.97;3.00;;;;;;;29.91;26.69;97822.59;5050226;28;20033;-82
2021/09/03 10:50:27;;;;;;;4.65;3.40;;;;;;;29.56;27.13;97818.25;5031701;28;20033;-83
2021/09/03 10:53:05;;;;;;;7.97;3.70;;;;;;;29.98;27.23;97814.31;5053351;28;20033;-82
2021/09/03 10:55:56;;;;;;;5.80;3.13;;;;;;;30.24;26.56;97814.31;5053554;28;20456;-82
2021/09/03 10:58:40;;;;;;;4.50;3.17;;;;;;;30.96;25.72;97806.00;5036723;28;20034;-82
2021/09/03 11:01:11;;;;;;;3.63;3.00;;;;;;;29.93;26.58;97803.09;5053998;28;20032;-77
2021/09/03 11:03:41;;;;;;;6.15;3.40;;;;;;;30.07;26.98;97796.50;5072149;28;20043;-76
2021/09/03 11:06:06;;;;;;;5.97;3.55;;;;;;;31.17;26.54;97797.41;5050263;28;20171;-77
2021/09/03 11:09:03;;;;;;;4.30;3.10;;;;;;;31.22;27.03;97807.84;5046763;28;20521;-75
2021/09/03 11:11:38;;;;;;;5.40;3.60;;;;;;;31.22;27.13;97815.28;5049992;28;20040;-76
2021/09/03 11:14:15;;;;;;;3.88;2.97;;;;;;;33.00;24.26;97796.28;5034478;28;20055;-76
2021/09/03 11:17:13;;;;;;;3.83;3.30;;;;;;;33.08;23.64;97796.84;5033985;28;20037;-76
2021/09/03 11:19:46;;;;;;;12.73;3.60;;;;;;;33.56;23.34;97794.09;5058453;28;20063;-77
2021/09/03 11:22:17;;;;;;;3.08;2.67;;;;;;;34.98;21.86;97789.47;5054291;28;20519;-78
2021/09/03 11:24:51;;;;;;;3.25;2.80;;;;;;;36.19;20.79;97766.91;5071174;28;20039;-78
2021/09/03 11:27:20;;;;;;;4.20;2.97;;;;;;;37.11;20.08;97770.03;5050244;28;20122;-81